sensor_id;sensor_type;location;lat;lon;timestamp;P1;durP1;ratioP1;P2;durP2;ratioP2
17528;SDS011;8882;53.192;8.184;2023-07-30T07:03:14;8.93;;;4.00;;
17528;SDS011;8882;53.192;8.184;2023-07-30T07:05:39;10.57;;;4.03;;
17528;SDS011;8882;53.192;8.184;2023-07-30T07:08:05;11.27;;;4.40;;
17528;SDS011;8882;53.192;8.184;2023-07-30T07:10:31;14.90;;;4.10;;
17528;SDS011;8882;53.192;8.184;2023-07-30T07:12:56;8.60;;;3.97;;
17528;SDS011;8882;53.192;8.184;2023-07-30T07:15:22;12.90;;;4.07;;
17528;SDS011;8882;53.192;8.184;2023-07-30T07:17:47;11.50;;;5.83;;
17528;SDS011;8882;53.192;8.184;2023-07-30T07:20:13;9.53;;;3.80;;
17528;SDS011;8882;53.192;8.184;2023-07-30T07:22:38;16.57;;;4.20;;
17528;SDS011;8882;53.192;8.184;2023-07-30T07:25:04;9.17;;;3.90;;
17528;SDS011;8882;53.192;8.184;2023-07-30T07:27:30;11.07;;;3.90;;
17528;SDS011;8882;53.192;8.184;2023-07-30T07:29:55;10.77;;;3.87;;
17528;SDS011;8882;53.192;8.184;2023-07-30T07:32:21;11.07;;;4.10;;
17528;SDS011;8882;53.192;8.184;2023-07-30T07:34:47;12.13;;;3.90;;
17528;SDS011;8882;53.192;8.184;2023-07-30T07:37:13;10.63;;;3.37;;
17528;SDS011;8882;53.192;8.184;2023-07-30T07:39:41;10.63;;;3.80;;
17528;SDS011;8882;53.192;8.184;2023-07-30T07:42:06;8.43;;;3.33;;
17528;SDS011;8882;53.192;8.184;2023-07-30T07:44:32;19.10;;;3.97;;
17528;SDS011;8882;53.192;8.184;2023-07-30T07:46:57;12.37;;;4.47;;
17528;SDS011;8882;53.192;8.184;2023-07-30T07:49:23;14.87;;;4.60;;
17528;SDS011;8882;53.192;8.184;2023-07-30T07:51:48;15.13;;;4.23;;
17528;SDS011;8882;53.192;8.184;2023-07-30T07:54:14;14.73;;;3.70;;
17528;SDS011;8882;53.192;8.184;2023-07-30T07:56:39;7.97;;;3.40;;
17528;SDS011;8882;53.192;8.184;2023-07-30T07:59:05;11.93;;;3.40;;
17528;SDS011;8882;53.192;8.184;2023-07-30T08:01:30;11.77;;;3.77;;
17528;SDS011;8882;53.192;8.184;2023-07-30T08:03:56;13.77;;;4.13;;
17528;SDS011;8882;53.192;8.184;2023-07-30T08:06:21;7.60;;;3.83;;
17528;SDS011;8882;53.192;8.184;2023-07-30T08:08:47;11.23;;;4.37;;
17528;SDS011;8882;53.192;8.184;2023-07-30T08:11:12;11.53;;;4.03;;
17528;SDS011;8882;53.192;8.184;2023-07-30T08:13:38;13.63;;;4.40;;
17528;SDS011;8882;53.192;8.184;2023-07-30T08:16:04;9.40;;;3.73;;
17528;SDS011;8882;53.192;8.184;2023-07-30T08:18:29;14.17;;;4.30;;
17528;SDS011;8882;53.192;8.184;2023-07-30T08:20:55;15.63;;;3.77;;
17528;SDS011;8882;53.192;8.184;2023-07-30T08:23:20;15.37;;;3.90;;
17528;SDS011;8882;53.192;8.184;2023-07-30T08:25:46;16.00;;;4.53;;
17528;SDS011;8882;53.192;8.184;2023-07-30T08:28:12;12.70;;;4.27;;
17528;SDS011;8882;53.192;8.184;2023-07-30T08:30:37;15.20;;;4.90;;
17528;SDS011;8882;53.192;8.184;2023-07-30T08:33:03;8.70;;;4.40;;
17528;SDS011;8882;53.192;8.184;2023-07-30T08:35:29;12.23;;;4.67;;
17528;SDS011;8882;53.192;8.184;2023-07-30T08:37:54;12.30;;;4.10;;
17528;SDS011;8882;53.192;8.184;2023-07-30T08:40:23;15.23;;;4.93;;
17528;SDS011;8882;53.192;8.184;2023-07-30T08:42:50;10.63;;;4.53;;
17528;SDS011;8882;53.192;8.184;2023-07-30T08:45:16;10.23;;;4.27;;
17528;SDS011;8882;53.192;8.184;2023-07-30T08:47:42;10.10;;;4.27;;
17528;SDS011;8882;53.192;8.184;2023-07-30T08:50:08;11.27;;;4.83;;
17528;SDS011;8882;53.192;8.184;2023-07-30T08:52:34;12.50;;;4.93;;
17528;SDS011;8882;53.192;8.184;2023-07-30T08:55:01;14.10;;;4.60;;
17528;SDS011;8882;53.192;8.184;2023-07-30T08:57:28;11.17;;;4.60;;
17528;SDS011;8882;53.192;8.184;2023-07-30T09:00:00;12.33;;;4.57;;
17528;SDS011;8882;53.192;8.184;2023-07-30T09:02:31;10.87;;;4.47;;
17528;SDS011;8882;53.192;8.184;2023-07-30T09:05:02;11.07;;;4.43;;
17528;SDS011;8882;53.192;8.184;2023-07-30T09:07:29;10.97;;;3.97;;
17528;SDS011;8882;53.192;8.184;2023-07-30T09:09:54;13.57;;;4.40;;
17528;SDS011;8882;53.192;8.184;2023-07-30T09:12:20;14.97;;;4.57;;
17528;SDS011;8882;53.192;8.184;2023-07-30T09:14:51;11.23;;;4.00;;
17528;SDS011;8882;53.192;8.184;2023-07-30T09:17:17;14.00;;;3.80;;
17528;SDS011;8882;53.192;8.184;2023-07-30T09:19:43;10.97;;;3.80;;
17528;SDS011;8882;53.192;8.184;2023-07-30T09:22:09;7.40;;;3.40;;
17528;SDS011;8882;53.192;8.184;2023-07-30T09:24:34;9.53;;;3.80;;
17528;SDS011;8882;53.192;8.184;2023-07-30T09:27:01;15.43;;;3.83;;
17528;SDS011;8882;53.192;8.184;2023-07-30T09:29:27;8.20;;;3.20;;
17528;SDS011;8882;53.192;8.184;2023-07-30T09:31:53;14.60;;;3.23;;
17528;SDS011;8882;53.192;8.184;2023-07-30T09:34:19;8.77;;;3.17;;
17528;SDS011;8882;53.192;8.184;2023-07-30T09:36:46;6.13;;;2.97;;
17528;SDS011;8882;53.192;8.184;2023-07-30T09:39:16;7.20;;;3.33;;
17528;SDS011;8882;53.192;8.184;2023-07-30T09:41:44;7.93;;;3.37;;
17528;SDS011;8882;53.192;8.184;2023-07-30T09:44:10;11.13;;;2.83;;
17528;SDS011;8882;53.192;8.184;2023-07-30T09:46:42;11.47;;;2.97;;
17528;SDS011;8882;53.192;8.184;2023-07-30T09:49:09;5.90;;;2.70;;
17528;SDS011;8882;53.192;8.184;2023-07-30T09:51:36;5.97;;;2.50;;
17528;SDS011;8882;53.192;8.184;2023-07-30T09:54:08;13.57;;;2.77;;
17528;SDS011;8882;53.192;8.184;2023-07-30T09:56:35;8.97;;;2.60;;
17528;SDS011;8882;53.192;8.184;2023-07-30T09:59:04;10.27;;;2.87;;
17528;SDS011;8882;53.192;8.184;2023-07-30T10:01:36;7.47;;;2.50;;
17528;SDS011;8882;53.192;8.184;2023-07-30T10:04:10;8.97;;;2.23;;
17528;SDS011;8882;53.192;8.184;2023-07-30T10:06:38;9.87;;;2.70;;
17528;SDS011;8882;53.192;8.184;2023-07-30T10:09:07;9.50;;;2.70;;
17528;SDS011;8882;53.192;8.184;2023-07-30T10:11:36;6.13;;;2.17;;
17528;SDS011;8882;53.192;8.184;2023-07-30T10:14:02;7.70;;;2.43;;
17528;SDS011;8882;53.192;8.184;2023-07-30T10:16:28;6.70;;;2.33;;
17528;SDS011;8882;53.192;8.184;2023-07-30T10:18:58;6.97;;;2.40;;
17528;SDS011;8882;53.192;8.184;2023-07-30T10:21:25;5.53;;;2.10;;
17528;SDS011;8882;53.192;8.184;2023-07-30T10:24:03;7.63;;;1.90;;
17528;SDS011;8882;53.192;8.184;2023-07-30T10:26:31;5.17;;;2.30;;
17528;SDS011;8882;53.192;8.184;2023-07-30T10:29:10;8.47;;;2.57;;
17528;SDS011;8882;53.192;8.184;2023-07-30T10:31:47;7.90;;;2.63;;
17528;SDS011;8882;53.192;8.184;2023-07-30T10:34:16;8.87;;;2.13;;
17528;SDS011;8882;53.192;8.184;2023-07-30T10:36:43;7.00;;;2.53;;
17528;SDS011;8882;53.192;8.184;2023-07-30T10:39:14;11.33;;;2.90;;
17528;SDS011;8882;53.192;8.184;2023-07-30T10:41:48;8.17;;;2.60;;
17528;SDS011;8882;53.192;8.184;2023-07-30T10:46:54;8.43;;;2.90;;
17528;SDS011;8882;53.192;8.184;2023-07-30T10:49:20;6.83;;;2.33;;
17528;SDS011;8882;53.192;8.184;2023-07-30T10:51:46;6.70;;;3.23;;
17528;SDS011;8882;53.192;8.184;2023-07-30T10:54:12;6.03;;;2.03;;
17528;SDS011;8882;53.192;8.184;2023-07-30T10:56:37;3.13;;;1.67;;
17528;SDS011;8882;53.192;8.184;2023-07-30T10:59:04;3.53;;;1.30;;
17528;SDS011;8882;53.192;8.184;2023-07-30T11:01:31;4.03;;;1.17;;
17528;SDS011;8882;53.192;8.184;2023-07-30T11:03:56;4.03;;;1.40;;
17528;SDS011;8882;53.192;8.184;2023-07-30T11:06:22;5.23;;;1.80;;
17528;SDS011;8882;53.192;8.184;2023-07-30T11:08:49;6.07;;;1.70;;
17528;SDS011;8882;53.192;8.184;2023-07-30T11:11:15;3.20;;;1.53;;
17528;SDS011;8882;53.192;8.184;2023-07-30T11:13:41;6.03;;;1.70;;
17528;SDS011;8882;53.192;8.184;2023-07-30T11:16:08;3.80;;;1.50;;
17528;SDS011;8882;53.192;8.184;2023-07-30T11:18:39;3.80;;;1.43;;
17528;SDS011;8882;53.192;8.184;2023-07-30T11:21:05;4.23;;;1.50;;
17528;SDS011;8882;53.192;8.184;2023-07-30T11:23:32;4.73;;;1.70;;
17528;SDS011;8882;53.192;8.184;2023-07-30T11:26:00;4.30;;;1.70;;
17528;SDS011;8882;53.192;8.184;2023-07-30T11:28:27;3.77;;;1.47;;
17528;SDS011;8882;53.192;8.184;2023-07-30T11:30:55;3.30;;;1.70;;
17528;SDS011;8882;53.192;8.184;2023-07-30T11:33:23;4.83;;;1.07;;
17528;SDS011;8882;53.192;8.184;2023-07-30T11:35:49;3.10;;;1.23;;
17528;SDS011;8882;53.192;8.184;2023-07-30T11:38:14;1.70;;;1.30;;
17528;SDS011;8882;53.192;8.184;2023-07-30T11:40:40;4.50;;;1.70;;
17528;SDS011;8882;53.192;8.184;2023-07-30T11:43:06;2.53;;;1.30;;
17528;SDS011;8882;53.192;8.184;2023-07-30T11:45:31;2.93;;;1.30;;
17528;SDS011;8882;53.192;8.184;2023-07-30T11:48:07;5.27;;;1.63;;
17528;SDS011;8882;53.192;8.184;2023-07-30T11:50:46;6.57;;;1.60;;
17528;SDS011;8882;53.192;8.184;2023-07-30T11:53:14;2.53;;;1.33;;
17528;SDS011;8882;53.192;8.184;2023-07-30T11:55:40;4.10;;;1.30;;
17528;SDS011;8882;53.192;8.184;2023-07-30T11:58:07;3.73;;;1.30;;
17528;SDS011;8882;53.192;8.184;2023-07-30T12:00:34;1.87;;;1.30;;
17528;SDS011;8882;53.192;8.184;2023-07-30T12:03:05;2.20;;;1.43;;
17528;SDS011;8882;53.192;8.184;2023-07-30T12:05:33;3.33;;;1.60;;
17528;SDS011;8882;53.192;8.184;2023-07-30T12:08:00;4.33;;;1.50;;
17528;SDS011;8882;53.192;8.184;2023-07-30T12:10:28;3.10;;;1.40;;
17528;SDS011;8882;53.192;8.184;2023-07-30T12:13:10;2.47;;;1.40;;
17528;SDS011;8882;53.192;8.184;2023-07-30T12:15:52;6.70;;;1.70;;
17528;SDS011;8882;53.192;8.184;2023-07-30T12:18:19;4.13;;;1.90;;
17528;SDS011;8882;53.192;8.184;2023-07-30T12:20:46;5.53;;;1.40;;
17528;SDS011;8882;53.192;8.184;2023-07-30T12:23:12;3.57;;;1.57;;
17528;SDS011;8882;53.192;8.184;2023-07-30T12:25:38;3.27;;;1.30;;
17528;SDS011;8882;53.192;8.184;2023-07-30T12:28:04;2.57;;;1.50;;
17528;SDS011;8882;53.192;8.184;2023-07-30T12:30:29;4.80;;;1.43;;
17528;SDS011;8882;53.192;8.184;2023-07-30T12:32:55;6.53;;;1.83;;
17528;SDS011;8882;53.192;8.184;2023-07-30T12:35:21;5.03;;;2.00;;
17528;SDS011;8882;53.192;8.184;2023-07-30T12:37:47;7.20;;;1.77;;
17528;SDS011;8882;53.192;8.184;2023-07-30T12:40:12;4.53;;;1.63;;
17528;SDS011;8882;53.192;8.184;2023-07-30T12:42:38;2.37;;;1.70;;
17528;SDS011;8882;53.192;8.184;2023-07-30T12:45:04;4.13;;;1.87;;
17528;SDS011;8882;53.192;8.184;2023-07-30T12:47:29;4.47;;;2.00;;
17528;SDS011;8882;53.192;8.184;2023-07-30T12:49:55;6.37;;;1.80;;
17528;SDS011;8882;53.192;8.184;2023-07-30T12:52:20;3.67;;;1.80;;
17528;SDS011;8882;53.192;8.184;2023-07-30T12:54:46;5.33;;;1.83;;
17528;SDS011;8882;53.192;8.184;2023-07-30T12:57:11;4.10;;;1.63;;
17528;SDS011;8882;53.192;8.184;2023-07-30T12:59:37;6.63;;;1.80;;
17528;SDS011;8882;53.192;8.184;2023-07-30T13:02:03;6.50;;;2.37;;
17528;SDS011;8882;53.192;8.184;2023-07-30T13:04:29;8.23;;;1.77;;
17528;SDS011;8882;53.192;8.184;2023-07-30T13:06:55;4.27;;;1.73;;
17528;SDS011;8882;53.192;8.184;2023-07-30T13:09:20;4.30;;;1.90;;
17528;SDS011;8882;53.192;8.184;2023-07-30T13:11:46;3.87;;;1.70;;
17528;SDS011;8882;53.192;8.184;2023-07-30T13:14:12;6.30;;;1.57;;
17528;SDS011;8882;53.192;8.184;2023-07-30T13:16:37;6.17;;;1.73;;
17528;SDS011;8882;53.192;8.184;2023-07-30T13:19:03;5.97;;;1.70;;
17528;SDS011;8882;53.192;8.184;2023-07-30T13:21:28;4.60;;;1.83;;
17528;SDS011;8882;53.192;8.184;2023-07-30T13:23:54;6.77;;;2.07;;
17528;SDS011;8882;53.192;8.184;2023-07-30T13:26:19;5.27;;;1.90;;
17528;SDS011;8882;53.192;8.184;2023-07-30T13:28:45;2.80;;;1.37;;
17528;SDS011;8882;53.192;8.184;2023-07-30T13:31:11;4.77;;;1.50;;
17528;SDS011;8882;53.192;8.184;2023-07-30T13:33:36;4.87;;;1.57;;
17528;SDS011;8882;53.192;8.184;2023-07-30T13:36:02;5.47;;;1.77;;
17528;SDS011;8882;53.192;8.184;2023-07-30T13:38:28;5.87;;;1.30;;
17528;SDS011;8882;53.192;8.184;2023-07-30T13:40:54;5.00;;;1.60;;
17528;SDS011;8882;53.192;8.184;2023-07-30T13:43:19;3.70;;;1.33;;
17528;SDS011;8882;53.192;8.184;2023-07-30T13:45:45;6.93;;;1.80;;
17528;SDS011;8882;53.192;8.184;2023-07-30T13:48:15;7.27;;;1.90;;
17528;SDS011;8882;53.192;8.184;2023-07-30T13:50:40;3.80;;;1.67;;
17528;SDS011;8882;53.192;8.184;2023-07-30T13:53:06;5.40;;;1.73;;
17528;SDS011;8882;53.192;8.184;2023-07-30T13:55:31;8.40;;;1.87;;
17528;SDS011;8882;53.192;8.184;2023-07-30T13:57:57;4.60;;;1.83;;
17528;SDS011;8882;53.192;8.184;2023-07-30T14:00:23;5.77;;;1.60;;
17528;SDS011;8882;53.192;8.184;2023-07-30T14:02:48;3.33;;;1.77;;
17528;SDS011;8882;53.192;8.184;2023-07-30T14:05:15;5.87;;;2.20;;
17528;SDS011;8882;53.192;8.184;2023-07-30T14:07:41;3.07;;;1.10;;
17528;SDS011;8882;53.192;8.184;2023-07-30T14:10:07;2.63;;;1.47;;
17528;SDS011;8882;53.192;8.184;2023-07-30T14:12:33;2.90;;;1.27;;
17528;SDS011;8882;53.192;8.184;2023-07-30T14:14:58;5.13;;;1.40;;
17528;SDS011;8882;53.192;8.184;2023-07-30T14:17:24;1.40;;;1.10;;
17528;SDS011;8882;53.192;8.184;2023-07-30T14:19:49;4.00;;;1.60;;
17528;SDS011;8882;53.192;8.184;2023-07-30T14:22:14;2.70;;;1.27;;
17528;SDS011;8882;53.192;8.184;2023-07-30T14:24:40;2.87;;;1.17;;
17528;SDS011;8882;53.192;8.184;2023-07-30T14:27:08;2.80;;;1.13;;
17528;SDS011;8882;53.192;8.184;2023-07-30T14:29:34;3.73;;;1.03;;
17528;SDS011;8882;53.192;8.184;2023-07-30T14:31:59;2.43;;;1.03;;
17528;SDS011;8882;53.192;8.184;2023-07-30T14:34:25;4.00;;;0.90;;
17528;SDS011;8882;53.192;8.184;2023-07-30T14:36:50;2.63;;;1.10;;
17528;SDS011;8882;53.192;8.184;2023-07-30T14:39:16;8.23;;;1.50;;
17528;SDS011;8882;53.192;8.184;2023-07-30T14:41:41;1.73;;;1.10;;
17528;SDS011;8882;53.192;8.184;2023-07-30T14:44:07;2.90;;;0.93;;
17528;SDS011;8882;53.192;8.184;2023-07-30T14:46:32;2.63;;;1.07;;
17528;SDS011;8882;53.192;8.184;2023-07-30T14:48:58;4.73;;;1.23;;
17528;SDS011;8882;53.192;8.184;2023-07-30T14:51:23;4.77;;;1.37;;
17528;SDS011;8882;53.192;8.184;2023-07-30T14:53:49;3.17;;;1.27;;
17528;SDS011;8882;53.192;8.184;2023-07-30T14:56:14;3.40;;;1.00;;
17528;SDS011;8882;53.192;8.184;2023-07-30T14:58:41;3.63;;;1.13;;
17528;SDS011;8882;53.192;8.184;2023-07-30T15:01:06;3.53;;;1.17;;
17528;SDS011;8882;53.192;8.184;2023-07-30T15:03:32;3.37;;;1.10;;
17528;SDS011;8882;53.192;8.184;2023-07-30T15:05:57;3.63;;;1.13;;
17528;SDS011;8882;53.192;8.184;2023-07-30T15:08:23;3.47;;;1.00;;
17528;SDS011;8882;53.192;8.184;2023-07-30T15:10:48;2.70;;;1.30;;
17528;SDS011;8882;53.192;8.184;2023-07-30T15:13:14;2.57;;;1.20;;
17528;SDS011;8882;53.192;8.184;2023-07-30T15:15:39;1.93;;;0.93;;
17528;SDS011;8882;53.192;8.184;2023-07-30T15:18:05;3.00;;;1.07;;
17528;SDS011;8882;53.192;8.184;2023-07-30T15:20:33;2.17;;;1.10;;
17528;SDS011;8882;53.192;8.184;2023-07-30T15:22:59;4.90;;;1.07;;
17528;SDS011;8882;53.192;8.184;2023-07-30T15:25:25;2.80;;;1.27;;
17528;SDS011;8882;53.192;8.184;2023-07-30T15:27:50;4.87;;;1.83;;
17528;SDS011;8882;53.192;8.184;2023-07-30T15:30:16;2.60;;;1.27;;
17528;SDS011;8882;53.192;8.184;2023-07-30T15:32:42;3.10;;;1.20;;
17528;SDS011;8882;53.192;8.184;2023-07-30T15:35:09;4.77;;;1.37;;
17528;SDS011;8882;53.192;8.184;2023-07-30T15:37:35;4.43;;;1.20;;
17528;SDS011;8882;53.192;8.184;2023-07-30T15:40:01;5.13;;;1.27;;
17528;SDS011;8882;53.192;8.184;2023-07-30T15:42:27;2.33;;;0.90;;
17528;SDS011;8882;53.192;8.184;2023-07-30T15:44:53;3.27;;;1.00;;
17528;SDS011;8882;53.192;8.184;2023-07-30T15:47:18;5.30;;;1.10;;
17528;SDS011;8882;53.192;8.184;2023-07-30T15:49:44;4.70;;;1.00;;
17528;SDS011;8882;53.192;8.184;2023-07-30T15:52:09;5.67;;;1.00;;
17528;SDS011;8882;53.192;8.184;2023-07-30T15:54:36;3.30;;;1.00;;
17528;SDS011;8882;53.192;8.184;2023-07-30T15:57:02;2.73;;;0.90;;
17528;SDS011;8882;53.192;8.184;2023-07-30T15:59:31;1.60;;;0.87;;
17528;SDS011;8882;53.192;8.184;2023-07-30T16:01:57;4.90;;;0.90;;
17528;SDS011;8882;53.192;8.184;2023-07-30T16:04:23;3.47;;;1.13;;
17528;SDS011;8882;53.192;8.184;2023-07-30T16:06:49;2.77;;;1.10;;
17528;SDS011;8882;53.192;8.184;2023-07-30T16:09:15;4.80;;;1.03;;
17528;SDS011;8882;53.192;8.184;2023-07-30T16:11:41;3.33;;;1.37;;
17528;SDS011;8882;53.192;8.184;2023-07-30T16:14:06;3.83;;;0.93;;
17528;SDS011;8882;53.192;8.184;2023-07-30T16:16:32;3.67;;;1.20;;
17528;SDS011;8882;53.192;8.184;2023-07-30T16:18:57;2.97;;;1.30;;
17528;SDS011;8882;53.192;8.184;2023-07-30T16:21:25;2.53;;;0.90;;
17528;SDS011;8882;53.192;8.184;2023-07-30T16:23:51;1.73;;;0.90;;
17528;SDS011;8882;53.192;8.184;2023-07-30T16:26:16;4.00;;;1.17;;
17528;SDS011;8882;53.192;8.184;2023-07-30T16:28:42;4.17;;;0.90;;
17528;SDS011;8882;53.192;8.184;2023-07-30T16:31:08;4.57;;;0.70;;
17528;SDS011;8882;53.192;8.184;2023-07-30T16:33:34;1.93;;;1.03;;
17528;SDS011;8882;53.192;8.184;2023-07-30T16:36:00;2.07;;;0.87;;
17528;SDS011;8882;53.192;8.184;2023-07-30T16:38:29;4.97;;;1.10;;
17528;SDS011;8882;53.192;8.184;2023-07-30T16:40:55;3.60;;;0.77;;
17528;SDS011;8882;53.192;8.184;2023-07-30T16:43:21;1.77;;;1.00;;
17528;SDS011;8882;53.192;8.184;2023-07-30T16:45:46;2.77;;;0.83;;
17528;SDS011;8882;53.192;8.184;2023-07-30T16:48:12;3.03;;;0.90;;
17528;SDS011;8882;53.192;8.184;2023-07-30T16:50:38;1.17;;;0.70;;
17528;SDS011;8882;53.192;8.184;2023-07-30T16:53:08;1.50;;;0.73;;
17528;SDS011;8882;53.192;8.184;2023-07-30T16:55:34;2.87;;;1.10;;
17528;SDS011;8882;53.192;8.184;2023-07-30T16:57:59;2.27;;;0.80;;
17528;SDS011;8882;53.192;8.184;2023-07-30T17:00:26;4.10;;;0.90;;
17528;SDS011;8882;53.192;8.184;2023-07-30T17:02:52;5.13;;;1.00;;
17528;SDS011;8882;53.192;8.184;2023-07-30T17:05:18;4.73;;;0.90;;
17528;SDS011;8882;53.192;8.184;2023-07-30T17:07:44;3.50;;;0.87;;
17528;SDS011;8882;53.192;8.184;2023-07-30T17:10:10;1.73;;;0.83;;
17528;SDS011;8882;53.192;8.184;2023-07-30T17:12:35;2.97;;;1.07;;
17528;SDS011;8882;53.192;8.184;2023-07-30T17:15:05;1.90;;;1.13;;
17528;SDS011;8882;53.192;8.184;2023-07-30T17:17:32;2.13;;;1.10;;
17528;SDS011;8882;53.192;8.184;2023-07-30T17:19:57;2.07;;;0.80;;
17528;SDS011;8882;53.192;8.184;2023-07-30T17:22:23;3.40;;;1.10;;
17528;SDS011;8882;53.192;8.184;2023-07-30T17:24:48;3.53;;;0.70;;
17528;SDS011;8882;53.192;8.184;2023-07-30T17:27:18;3.50;;;0.80;;
17528;SDS011;8882;53.192;8.184;2023-07-30T17:29:43;3.67;;;1.03;;
17528;SDS011;8882;53.192;8.184;2023-07-30T17:32:09;3.13;;;0.80;;
17528;SDS011;8882;53.192;8.184;2023-07-30T17:34:34;3.57;;;1.00;;
17528;SDS011;8882;53.192;8.184;2023-07-30T17:37:00;3.03;;;1.07;;
17528;SDS011;8882;53.192;8.184;2023-07-30T17:39:28;1.83;;;1.17;;
17528;SDS011;8882;53.192;8.184;2023-07-30T17:41:53;4.13;;;1.60;;
17528;SDS011;8882;53.192;8.184;2023-07-30T17:44:19;1.73;;;1.00;;
17528;SDS011;8882;53.192;8.184;2023-07-30T17:46:44;2.70;;;1.10;;
17528;SDS011;8882;53.192;8.184;2023-07-30T17:49:10;3.07;;;1.00;;
17528;SDS011;8882;53.192;8.184;2023-07-30T17:51:36;1.70;;;1.23;;
17528;SDS011;8882;53.192;8.184;2023-07-30T17:54:01;2.03;;;0.97;;
17528;SDS011;8882;53.192;8.184;2023-07-30T17:56:27;2.17;;;1.00;;
17528;SDS011;8882;53.192;8.184;2023-07-30T17:58:52;3.13;;;1.00;;
17528;SDS011;8882;53.192;8.184;2023-07-30T18:01:18;1.80;;;0.90;;
17528;SDS011;8882;53.192;8.184;2023-07-30T18:03:44;3.20;;;0.80;;
17528;SDS011;8882;53.192;8.184;2023-07-30T18:06:09;2.50;;;1.00;;
17528;SDS011;8882;53.192;8.184;2023-07-30T18:08:34;3.43;;;0.90;;
17528;SDS011;8882;53.192;8.184;2023-07-30T18:11:00;2.20;;;0.80;;
17528;SDS011;8882;53.192;8.184;2023-07-30T18:13:26;4.20;;;0.80;;
17528;SDS011;8882;53.192;8.184;2023-07-30T18:15:51;5.83;;;0.90;;
17528;SDS011;8882;53.192;8.184;2023-07-30T18:18:17;3.33;;;0.90;;
17528;SDS011;8882;53.192;8.184;2023-07-30T18:20:45;2.80;;;0.83;;
17528;SDS011;8882;53.192;8.184;2023-07-30T18:23:11;2.00;;;0.63;;
17528;SDS011;8882;53.192;8.184;2023-07-30T18:25:37;2.20;;;0.90;;
17528;SDS011;8882;53.192;8.184;2023-07-30T18:28:03;3.10;;;0.90;;
17528;SDS011;8882;53.192;8.184;2023-07-30T18:30:28;4.10;;;1.03;;
17528;SDS011;8882;53.192;8.184;2023-07-30T18:32:54;2.07;;;0.70;;
17528;SDS011;8882;53.192;8.184;2023-07-30T18:35:19;0.83;;;0.77;;
17528;SDS011;8882;53.192;8.184;2023-07-30T18:37:45;3.17;;;0.60;;
17528;SDS011;8882;53.192;8.184;2023-07-30T18:40:10;3.63;;;0.97;;
17528;SDS011;8882;53.192;8.184;2023-07-30T18:42:36;3.37;;;1.17;;
17528;SDS011;8882;53.192;8.184;2023-07-30T18:45:03;2.00;;;0.80;;
17528;SDS011;8882;53.192;8.184;2023-07-30T18:47:29;1.07;;;1.00;;
17528;SDS011;8882;53.192;8.184;2023-07-30T18:49:55;1.50;;;1.10;;
17528;SDS011;8882;53.192;8.184;2023-07-30T18:52:21;2.37;;;1.07;;
17528;SDS011;8882;53.192;8.184;2023-07-30T18:54:47;2.33;;;1.00;;
17528;SDS011;8882;53.192;8.184;2023-07-30T18:57:12;2.27;;;0.87;;
17528;SDS011;8882;53.192;8.184;2023-07-30T18:59:38;2.13;;;0.73;;
17528;SDS011;8882;53.192;8.184;2023-07-30T19:02:04;2.40;;;1.10;;
17528;SDS011;8882;53.192;8.184;2023-07-30T19:04:30;3.60;;;0.80;;
17528;SDS011;8882;53.192;8.184;2023-07-30T19:06:56;2.00;;;0.77;;
17528;SDS011;8882;53.192;8.184;2023-07-30T19:09:21;2.53;;;0.87;;
17528;SDS011;8882;53.192;8.184;2023-07-30T19:11:47;1.07;;;0.53;;
17528;SDS011;8882;53.192;8.184;2023-07-30T19:14:12;1.77;;;0.83;;
17528;SDS011;8882;53.192;8.184;2023-07-30T19:16:38;1.60;;;0.77;;
17528;SDS011;8882;53.192;8.184;2023-07-30T19:19:03;1.23;;;0.57;;
17528;SDS011;8882;53.192;8.184;2023-07-30T19:21:29;3.03;;;1.30;;
17528;SDS011;8882;53.192;8.184;2023-07-30T19:23:54;2.23;;;1.00;;
17528;SDS011;8882;53.192;8.184;2023-07-30T19:26:21;1.00;;;0.90;;
17528;SDS011;8882;53.192;8.184;2023-07-30T19:28:46;3.60;;;0.90;;
17528;SDS011;8882;53.192;8.184;2023-07-30T19:31:12;1.73;;;0.80;;
17528;SDS011;8882;53.192;8.184;2023-07-30T19:33:38;1.37;;;0.90;;
17528;SDS011;8882;53.192;8.184;2023-07-30T19:36:06;1.97;;;1.00;;
17528;SDS011;8882;53.192;8.184;2023-07-30T19:38:35;5.63;;;0.90;;
17528;SDS011;8882;53.192;8.184;2023-07-30T19:41:01;2.80;;;0.80;;
17528;SDS011;8882;53.192;8.184;2023-07-30T19:43:27;1.20;;;0.70;;
17528;SDS011;8882;53.192;8.184;2023-07-30T19:45:53;1.67;;;0.83;;
17528;SDS011;8882;53.192;8.184;2023-07-30T19:48:19;2.97;;;0.90;;
17528;SDS011;8882;53.192;8.184;2023-07-30T19:50:46;5.30;;;0.93;;
17528;SDS011;8882;53.192;8.184;2023-07-30T19:53:11;1.97;;;0.97;;
17528;SDS011;8882;53.192;8.184;2023-07-30T19:55:37;3.70;;;1.10;;
17528;SDS011;8882;53.192;8.184;2023-07-30T19:58:10;2.50;;;0.90;;
17528;SDS011;8882;53.192;8.184;2023-07-30T20:00:51;4.40;;;1.13;;
17528;SDS011;8882;53.192;8.184;2023-07-30T20:03:17;5.97;;;1.20;;
17528;SDS011;8882;53.192;8.184;2023-07-30T20:05:42;2.63;;;1.10;;
17528;SDS011;8882;53.192;8.184;2023-07-30T20:08:08;3.40;;;1.27;;
17528;SDS011;8882;53.192;8.184;2023-07-30T20:10:33;4.07;;;1.30;;
17528;SDS011;8882;53.192;8.184;2023-07-30T20:12:59;4.17;;;1.53;;
17528;SDS011;8882;53.192;8.184;2023-07-30T20:15:24;3.90;;;1.13;;
17528;SDS011;8882;53.192;8.184;2023-07-30T20:17:49;6.23;;;1.10;;
17528;SDS011;8882;53.192;8.184;2023-07-30T20:20:15;3.17;;;1.10;;
17528;SDS011;8882;53.192;8.184;2023-07-30T20:22:43;4.70;;;1.40;;
17528;SDS011;8882;53.192;8.184;2023-07-30T20:25:09;3.63;;;1.10;;
17528;SDS011;8882;53.192;8.184;2023-07-30T20:27:35;2.97;;;1.20;;
17528;SDS011;8882;53.192;8.184;2023-07-30T20:30:00;3.97;;;1.10;;
17528;SDS011;8882;53.192;8.184;2023-07-30T20:32:26;2.93;;;1.30;;
17528;SDS011;8882;53.192;8.184;2023-07-30T20:34:52;3.90;;;1.30;;
17528;SDS011;8882;53.192;8.184;2023-07-30T20:37:18;3.83;;;1.33;;
17528;SDS011;8882;53.192;8.184;2023-07-30T20:39:43;4.47;;;1.30;;
17528;SDS011;8882;53.192;8.184;2023-07-30T20:42:09;6.23;;;1.53;;
17528;SDS011;8882;53.192;8.184;2023-07-30T20:44:34;5.13;;;1.63;;
17528;SDS011;8882;53.192;8.184;2023-07-30T20:47:00;2.53;;;1.50;;
17528;SDS011;8882;53.192;8.184;2023-07-30T20:49:26;4.00;;;1.10;;
17528;SDS011;8882;53.192;8.184;2023-07-30T20:51:51;5.10;;;1.23;;
17528;SDS011;8882;53.192;8.184;2023-07-30T20:54:18;6.77;;;1.70;;
17528;SDS011;8882;53.192;8.184;2023-07-30T20:56:43;2.90;;;1.07;;
17528;SDS011;8882;53.192;8.184;2023-07-30T20:59:09;4.73;;;1.67;;
